createdAt,value
2022-10-05T00:00:25.425Z,100618.27
2022-10-05T00:03:17.795Z,100622.93
2022-10-05T00:05:50.770Z,100618.68
2022-10-05T00:08:26.523Z,100618.34
2022-10-05T00:10:58.876Z,100616.22
2022-10-05T00:13:32.226Z,100616.02
2022-10-05T00:16:14.684Z,100625.11
2022-10-05T00:18:50.046Z,100635.70
2022-10-05T00:21:24.610Z,100640.15
2022-10-05T00:23:59.785Z,100633.00
2022-10-05T00:26:35.454Z,100634.82
2022-10-05T00:29:22.745Z,100630.27
2022-10-05T00:31:55.176Z,100629.77
2022-10-05T00:34:28.392Z,100624.91
2022-10-05T00:37:01.243Z,100619.08
2022-10-05T00:39:34.385Z,100621.13
2022-10-05T00:42:20.890Z,100629.39
2022-10-05T00:44:56.734Z,100634.98
2022-10-05T00:47:42.497Z,100632.98
2022-10-05T00:50:44.844Z,100631.70
2022-10-05T00:53:31.665Z,100630.09
2022-10-05T00:56:08.021Z,100628.08
2022-10-05T00:58:55.385Z,100622.08
2022-10-05T01:01:33.150Z,100614.22
2022-10-05T01:04:16.802Z,100615.64
2022-10-05T01:07:03.303Z,100604.73
2022-10-05T01:09:43.775Z,100599.02
2022-10-05T01:12:24.543Z,100595.41
2022-10-05T01:15:06.586Z,100593.41
2022-10-05T01:17:46.053Z,100585.00
2022-10-05T01:20:35.631Z,100586.15
2022-10-05T01:23:33.147Z,100595.59
2022-10-05T01:26:25.926Z,100599.27
2022-10-05T01:29:05.090Z,100589.59
2022-10-05T01:31:44.104Z,100577.08
2022-10-05T01:34:29.194Z,100573.33
2022-10-05T01:37:08.412Z,100571.71
2022-10-05T01:39:51.722Z,100571.17
2022-10-05T01:42:32.505Z,100578.05
2022-10-05T01:45:10.721Z,100583.41
2022-10-05T01:47:48.969Z,100585.88
2022-10-05T01:50:34.423Z,100578.80
2022-10-05T01:53:21.280Z,100583.20
2022-10-05T01:56:00.284Z,100581.52
2022-10-05T01:58:42.805Z,100573.90
2022-10-05T02:01:26.972Z,100577.61
2022-10-05T02:04:10.525Z,100576.98
2022-10-05T02:06:46.602Z,100574.21
2022-10-05T02:09:24.204Z,100576.14
2022-10-05T02:12:13.161Z,100574.39
2022-10-05T02:14:48.715Z,100578.90
2022-10-05T02:17:21.107Z,100583.31
2022-10-05T02:20:00.000Z,100575.84
2022-10-05T02:22:36.679Z,100574.41
2022-10-05T02:25:14.589Z,100572.02
2022-10-05T02:27:51.245Z,100579.71
2022-10-05T02:30:24.276Z,100578.23
2022-10-05T02:33:01.380Z,100574.49
2022-10-05T02:35:33.882Z,100565.23
2022-10-05T02:38:15.681Z,100556.52
2022-10-05T02:40:59.928Z,100552.21
2022-10-05T02:43:44.529Z,100548.60
2022-10-05T02:46:29.175Z,100550.15
2022-10-05T02:49:13.829Z,100551.27
2022-10-05T02:51:57.558Z,100548.91
2022-10-05T02:54:43.864Z,100548.04
2022-10-05T02:57:26.157Z,100549.12
2022-10-05T03:00:03.357Z,100550.27
2022-10-05T03:02:42.721Z,100540.42
2022-10-05T03:05:23.424Z,100533.72
2022-10-05T03:08:02.267Z,100526.34
2022-10-05T03:10:40.855Z,100536.89
2022-10-05T03:13:27.311Z,100542.63
2022-10-05T03:16:12.830Z,100552.14
2022-10-05T03:18:57.441Z,100555.48
2022-10-05T03:21:44.977Z,100560.80
2022-10-05T03:24:43.577Z,100564.50
2022-10-05T03:27:28.382Z,100569.70
2022-10-05T03:30:14.757Z,100564.98
2022-10-05T03:33:01.784Z,100566.97
2022-10-05T03:35:38.267Z,100570.77
2022-10-05T03:38:19.261Z,100573.41
2022-10-05T03:40:59.048Z,100567.91
2022-10-05T03:43:51.806Z,100569.09
2022-10-05T03:46:33.809Z,100562.98
2022-10-05T03:49:17.019Z,100556.71
2022-10-05T03:51:55.081Z,100561.77
2022-10-05T03:54:32.057Z,100555.36
2022-10-05T03:57:12.479Z,100550.56
2022-10-05T03:59:53.462Z,100546.23
2022-10-05T04:02:30.635Z,100544.15
2022-10-05T04:05:12.800Z,100542.98
2022-10-05T04:07:47.651Z,100534.84
2022-10-05T04:10:27.003Z,100527.42
2022-10-05T04:13:04.690Z,100528.77
2022-10-05T04:15:43.121Z,100522.51
2022-10-05T04:18:27.285Z,100519.10
2022-10-05T04:21:04.323Z,100514.36
2022-10-05T04:23:46.034Z,100512.42
2022-10-05T04:26:21.327Z,100516.86
2022-10-05T04:29:00.411Z,100519.84
2022-10-05T04:31:50.008Z,100526.68
2022-10-05T04:34:42.090Z,100523.08
2022-10-05T04:37:22.981Z,100516.17
2022-10-05T04:40:09.943Z,100516.06
2022-10-05T04:42:49.028Z,100519.13
2022-10-05T04:45:35.360Z,100513.38
2022-10-05T04:48:21.934Z,100508.98
2022-10-05T04:51:07.470Z,100516.55
2022-10-05T04:53:47.774Z,100514.45
2022-10-05T04:56:29.643Z,100514.28
2022-10-05T04:59:20.860Z,100515.43
2022-10-05T05:02:08.776Z,100515.30
2022-10-05T05:05:00.128Z,100514.94
2022-10-05T05:07:49.193Z,100517.45
2022-10-05T05:10:45.134Z,100517.08
2022-10-05T05:13:39.841Z,100513.45
2022-10-05T05:16:21.456Z,100507.95
2022-10-05T05:19:33.094Z,100507.66
2022-10-05T05:22:09.655Z,100505.14
2022-10-05T05:24:58.886Z,100505.98
2022-10-05T05:27:48.674Z,100506.30
2022-10-05T05:30:25.983Z,100507.67
2022-10-05T05:33:20.409Z,100507.24
2022-10-05T05:36:26.425Z,100516.34
2022-10-05T05:39:18.383Z,100519.07
2022-10-05T05:42:01.857Z,100519.27
2022-10-05T05:44:41.325Z,100516.34
2022-10-05T05:47:21.063Z,100516.58
2022-10-05T05:50:11.673Z,100517.07
2022-10-05T05:52:48.612Z,100518.11
2022-10-05T05:55:29.971Z,100522.87
2022-10-05T05:58:11.508Z,100527.28
2022-10-05T06:00:49.770Z,100532.88
2022-10-05T06:03:27.385Z,100534.35
2022-10-05T06:06:03.037Z,100533.37
2022-10-05T06:08:39.396Z,100536.06
2022-10-05T06:11:34.272Z,100541.05
2022-10-05T06:14:14.355Z,100542.48
2022-10-05T06:16:52.600Z,100543.02
2022-10-05T06:19:27.678Z,100531.95
2022-10-05T06:22:06.835Z,100523.59
2022-10-05T06:24:45.564Z,100513.55
2022-10-05T06:27:28.523Z,100503.49
2022-10-05T06:30:13.456Z,100503.79
2022-10-05T06:33:07.627Z,100501.36
2022-10-05T06:35:53.782Z,100498.40
2022-10-05T06:38:50.858Z,100494.25
2022-10-05T06:41:35.279Z,100489.41
2022-10-05T06:44:14.260Z,100493.52
2022-10-05T06:46:59.593Z,100491.14
2022-10-05T06:49:58.811Z,100493.27
2022-10-05T06:52:55.232Z,100503.77
2022-10-05T06:55:37.985Z,100506.22
2022-10-05T06:58:27.972Z,100509.88
2022-10-05T07:01:06.193Z,100511.83
2022-10-05T07:03:48.454Z,100516.33
2022-10-05T07:06:26.873Z,100510.55
2022-10-05T07:09:15.263Z,100505.23
2022-10-05T07:12:04.580Z,100498.73
2022-10-05T07:14:57.584Z,100502.70
2022-10-05T07:17:45.735Z,100510.83
2022-10-05T07:20:27.893Z,100520.64
2022-10-05T07:23:19.877Z,100525.80
2022-10-05T07:26:01.483Z,100493.98
2022-10-05T07:28:44.801Z,100460.51
2022-10-05T07:31:29.421Z,100455.90
2022-10-05T07:34:10.897Z,100465.83
2022-10-05T07:37:08.648Z,100467.92
2022-10-05T07:40:00.250Z,100477.83
2022-10-05T07:42:51.717Z,100479.44
2022-10-05T07:45:35.302Z,100473.49
2022-10-05T07:48:15.048Z,100473.17
2022-10-05T07:50:59.956Z,100473.92
2022-10-05T07:53:38.125Z,100473.22
2022-10-05T07:56:22.088Z,100463.02
2022-10-05T07:59:01.835Z,100455.59
2022-10-05T08:01:38.787Z,100450.48
2022-10-05T08:04:16.922Z,100436.31
2022-10-05T08:06:55.285Z,100431.39
2022-10-05T08:09:37.840Z,100436.61
2022-10-05T08:12:30.926Z,100453.90
2022-10-05T08:15:10.969Z,100471.60
2022-10-05T08:17:51.908Z,100473.84
2022-10-05T08:20:36.695Z,100474.98
2022-10-05T08:23:18.972Z,100478.66
2022-10-05T08:26:04.006Z,100484.26
2022-10-05T08:28:52.463Z,100486.70
2022-10-05T08:31:33.122Z,100478.90
2022-10-05T08:34:20.320Z,100470.39
2022-10-05T08:36:59.470Z,100458.73
2022-10-05T08:39:38.563Z,100458.41
2022-10-05T08:42:52.609Z,100460.45
2022-10-05T08:45:55.536Z,100448.04
2022-10-05T08:48:53.549Z,100445.14
2022-10-05T08:52:02.503Z,100455.84
2022-10-05T08:55:05.765Z,100456.59
2022-10-05T08:58:17.397Z,100456.86
2022-10-05T09:01:08.926Z,100466.42
2022-10-05T09:04:20.927Z,100464.92
2022-10-05T09:07:18.481Z,100454.76
2022-10-05T09:10:26.003Z,100444.36
2022-10-05T09:13:29.928Z,100444.08
2022-10-05T09:16:37.721Z,100443.65
2022-10-05T09:19:33.017Z,100450.23
2022-10-05T09:22:16.619Z,100444.10
2022-10-05T09:25:04.804Z,100446.30
2022-10-05T09:27:40.203Z,100444.02
2022-10-05T09:30:23.437Z,100443.70
2022-10-05T09:33:47.611Z,100442.70
2022-10-05T09:36:56.345Z,100435.14
2022-10-05T09:39:52.632Z,100432.46
2022-10-05T09:42:54.201Z,100432.80
2022-10-05T09:46:01.448Z,100437.51
2022-10-05T09:49:07.669Z,100446.19
2022-10-05T09:52:12.311Z,100449.87
2022-10-05T09:55:24.119Z,100444.39
2022-10-05T09:58:33.510Z,100442.27
2022-10-05T10:01:33.050Z,100449.01
2022-10-05T10:04:43.915Z,100449.04
2022-10-05T10:08:05.817Z,100453.16
2022-10-05T10:10:58.337Z,100447.09
2022-10-05T10:14:02.359Z,100453.22
2022-10-05T10:16:53.785Z,100452.75
2022-10-05T10:19:50.120Z,100444.24
2022-10-05T10:23:07.976Z,100443.27
2022-10-05T10:26:14.303Z,100437.10
2022-10-05T10:32:20.548Z,100437.21
2022-10-05T10:35:19.559Z,100434.94
2022-10-05T10:38:40.320Z,100436.27
2022-10-05T10:41:53.694Z,100428.42
2022-10-05T10:44:52.535Z,100427.00
2022-10-05T10:47:51.768Z,100423.61
2022-10-05T10:50:59.018Z,100422.65
2022-10-05T10:54:06.249Z,100421.19
2022-10-05T10:56:59.545Z,100429.92
2022-10-05T11:00:02.790Z,100432.85
2022-10-05T11:03:02.285Z,100437.66
2022-10-05T11:05:59.615Z,100437.08
2022-10-05T11:09:09.509Z,100437.52
2022-10-05T11:12:17.916Z,100447.20
2022-10-05T11:15:18.354Z,100444.30
2022-10-05T11:18:11.628Z,100440.79
2022-10-05T11:21:05.775Z,100438.06
2022-10-05T11:24:17.014Z,100439.27
2022-10-05T11:27:33.111Z,100438.71
2022-10-05T11:30:26.910Z,100448.14
2022-10-05T11:33:48.331Z,100441.39
2022-10-05T11:37:07.253Z,100442.65
2022-10-05T11:39:56.352Z,100444.75
2022-10-05T11:43:12.827Z,100449.48
2022-10-05T11:46:02.119Z,100457.52
2022-10-05T11:48:53.505Z,100456.30
2022-10-05T11:51:38.355Z,100454.16
2022-10-05T11:54:58.496Z,100440.73
2022-10-05T11:57:34.835Z,100434.96
2022-10-05T12:00:16.512Z,100435.39
2022-10-05T12:03:10.948Z,100424.01
2022-10-05T12:06:02.208Z,100411.67
2022-10-05T12:08:51.129Z,100407.23
2022-10-05T12:11:49.001Z,100404.34
2022-10-05T12:14:31.095Z,100402.20
2022-10-05T12:17:14.860Z,100394.15
2022-10-05T12:19:51.027Z,100394.38
2022-10-05T12:22:29.190Z,100392.11
2022-10-05T12:25:18.065Z,100394.08
2022-10-05T12:27:53.742Z,100390.85
2022-10-05T12:30:38.716Z,100390.02
2022-10-05T12:33:16.563Z,100392.41
2022-10-05T12:35:54.078Z,100397.11
2022-10-05T12:38:48.475Z,100398.91
2022-10-05T12:41:28.748Z,100393.67
2022-10-05T12:44:13.058Z,100395.17
2022-10-05T12:47:02.349Z,100392.05
2022-10-05T12:49:51.482Z,100395.27
2022-10-05T12:52:43.456Z,100390.41
2022-10-05T12:55:26.655Z,100380.32
2022-10-05T12:58:14.637Z,100387.30
2022-10-05T13:00:57.473Z,100383.21
2022-10-05T13:03:35.752Z,100394.42
2022-10-05T13:06:16.529Z,100390.23
2022-10-05T13:08:54.950Z,100389.64
2022-10-05T13:11:34.979Z,100393.67
2022-10-05T13:14:19.399Z,100404.38
2022-10-05T13:16:56.868Z,100401.14
2022-10-05T13:19:41.692Z,100395.71
2022-10-05T13:22:33.712Z,100393.38
2022-10-05T13:25:23.641Z,100378.36
2022-10-05T13:28:10.902Z,100383.41
2022-10-05T13:30:46.916Z,100380.67
2022-10-05T13:33:27.201Z,100381.23
2022-10-05T13:36:08.545Z,100381.43
2022-10-05T13:38:53.068Z,100374.11
2022-10-05T13:41:36.145Z,100367.97
2022-10-05T13:44:20.122Z,100362.87
2022-10-05T13:47:00.912Z,100356.80
2022-10-05T13:49:42.454Z,100355.51
2022-10-05T13:52:27.240Z,100346.36
2022-10-05T13:55:08.114Z,100335.98
2022-10-05T13:57:54.123Z,100338.34
2022-10-05T14:00:28.184Z,100339.05
2022-10-05T14:03:02.142Z,100338.77
2022-10-05T14:05:34.760Z,100340.73
2022-10-05T14:08:20.189Z,100342.91
2022-10-05T14:10:53.977Z,100342.86
2022-10-05T14:13:33.453Z,100341.42
2022-10-05T14:16:20.213Z,100345.52
2022-10-05T14:18:59.088Z,100347.61
2022-10-05T14:21:33.550Z,100352.42
2022-10-05T14:24:43.094Z,100353.13
2022-10-05T14:27:26.800Z,100358.44
2022-10-05T14:30:06.453Z,100358.53
2022-10-05T14:33:10.347Z,100356.69
2022-10-05T14:35:54.656Z,100364.20
2022-10-05T14:38:29.970Z,100359.87
2022-10-05T14:41:25.030Z,100358.49
2022-10-05T14:44:17.684Z,100358.20
2022-10-05T14:47:01.290Z,100358.48
2022-10-05T14:49:37.508Z,100349.66
2022-10-05T14:52:34.820Z,100344.19
2022-10-05T14:55:21.278Z,100339.63
2022-10-05T14:58:06.680Z,100337.50
2022-10-05T15:00:50.346Z,100338.39
2022-10-05T15:03:36.976Z,100338.64
2022-10-05T15:06:17.162Z,100339.48
2022-10-05T15:08:59.607Z,100340.35
2022-10-05T15:11:43.351Z,100334.67
2022-10-05T15:14:20.515Z,100333.04
2022-10-05T15:16:58.875Z,100332.66
2022-10-05T15:19:41.566Z,100338.52
2022-10-05T15:22:26.620Z,100343.33
2022-10-05T15:25:02.904Z,100338.52
2022-10-05T15:27:51.496Z,100336.02
2022-10-05T15:30:24.666Z,100335.10
2022-10-05T15:33:10.652Z,100335.40
2022-10-05T15:36:04.401Z,100329.91
2022-10-05T15:38:45.430Z,100336.73
2022-10-05T15:41:24.102Z,100339.58
2022-10-05T15:44:09.086Z,100331.34
2022-10-05T15:46:53.633Z,100332.09
2022-10-05T15:49:38.146Z,100330.48
2022-10-05T15:52:23.946Z,100328.05
2022-10-05T15:55:35.255Z,100323.16
2022-10-05T15:58:31.337Z,100320.86
2022-10-05T16:01:08.619Z,100314.55
2022-10-05T16:03:50.457Z,100318.40
2022-10-05T16:06:57.414Z,100323.02
2022-10-05T16:09:50.483Z,100330.38
2022-10-05T16:12:31.305Z,100325.95
2022-10-05T16:15:16.955Z,100325.19
2022-10-05T16:18:18.557Z,100321.34
2022-10-05T16:20:55.078Z,100317.47
2022-10-05T16:23:39.214Z,100315.58
2022-10-05T16:26:22.753Z,100316.38
2022-10-05T16:29:03.984Z,100317.41
2022-10-05T16:31:47.164Z,100320.42
2022-10-05T16:34:30.916Z,100322.59
2022-10-05T16:37:12.745Z,100322.17
2022-10-05T16:39:53.148Z,100324.02
2022-10-05T16:42:36.314Z,100320.52
2022-10-05T16:45:22.978Z,100323.74
2022-10-05T16:48:04.880Z,100328.04
2022-10-05T16:50:48.905Z,100325.86
2022-10-05T16:53:26.569Z,100324.56
2022-10-05T16:56:03.230Z,100323.23
2022-10-05T16:58:50.987Z,100318.95
2022-10-05T17:01:42.349Z,100322.88
2022-10-05T17:04:26.236Z,100324.58
2022-10-05T17:07:32.678Z,100325.87
2022-10-05T17:10:41.189Z,100324.70
2022-10-05T17:13:37.507Z,100325.27
2022-10-05T17:16:19.281Z,100321.39
2022-10-05T17:19:19.341Z,100324.23
2022-10-05T17:22:00.764Z,100323.80
2022-10-05T17:24:55.106Z,100330.98
2022-10-05T17:27:35.565Z,100323.56
2022-10-05T17:30:53.986Z,100321.03
2022-10-05T17:33:29.163Z,100316.52
2022-10-05T17:36:21.577Z,100312.50
2022-10-05T17:39:12.292Z,100306.49
2022-10-05T17:41:45.368Z,100308.08
2022-10-05T17:44:26.467Z,100305.23
2022-10-05T17:47:04.619Z,100301.02
2022-10-05T17:50:09.995Z,100304.02
2022-10-05T17:53:02.263Z,100302.34
2022-10-05T17:55:46.799Z,100300.01
2022-10-05T17:59:02.382Z,100296.61
2022-10-05T18:01:37.436Z,100299.57
2022-10-05T18:04:33.764Z,100297.64
2022-10-05T18:07:16.857Z,100294.45
2022-10-05T18:10:29.110Z,100297.45
2022-10-05T18:13:35.600Z,100293.20
2022-10-05T18:16:11.120Z,100295.75
2022-10-05T18:18:58.222Z,100295.36
2022-10-05T18:21:39.106Z,100295.50
2022-10-05T18:24:45.557Z,100294.21
2022-10-05T18:27:42.850Z,100295.45
2022-10-05T18:30:23.346Z,100290.51
2022-10-05T18:33:27.289Z,100290.93
2022-10-05T18:36:19.541Z,100290.52
2022-10-05T18:39:01.318Z,100288.94
2022-10-05T18:41:48.490Z,100286.30
2022-10-05T18:44:35.732Z,100288.39
2022-10-05T18:47:18.367Z,100289.13
2022-10-05T18:50:26.358Z,100289.78
2022-10-05T18:53:16.264Z,100290.48
2022-10-05T18:55:59.023Z,100283.33
2022-10-05T18:58:42.118Z,100281.56
2022-10-05T19:01:36.613Z,100278.83
2022-10-05T19:04:22.633Z,100275.98
2022-10-05T19:07:05.965Z,100274.77
2022-10-05T19:09:53.940Z,100276.42
2022-10-05T19:12:41.545Z,100277.03
2022-10-05T19:15:24.954Z,100277.39
2022-10-05T19:18:15.481Z,100277.77
2022-10-05T19:20:55.731Z,100274.61
2022-10-05T19:23:46.756Z,100275.17
2022-10-05T19:26:30.081Z,100278.25
2022-10-05T19:29:14.027Z,100276.63
2022-10-05T19:31:51.521Z,100275.67
2022-10-05T19:34:41.161Z,100275.98
2022-10-05T19:37:19.077Z,100276.63
2022-10-05T19:39:57.813Z,100279.33
2022-10-05T19:42:53.569Z,100277.06
2022-10-05T19:45:27.576Z,100278.23
2022-10-05T19:48:14.118Z,100277.31
2022-10-05T19:50:56.283Z,100275.75
2022-10-05T19:53:31.278Z,100280.57
2022-10-05T19:56:20.495Z,100277.84
2022-10-05T19:58:57.502Z,100282.12
2022-10-05T20:01:35.517Z,100282.58
2022-10-05T20:04:09.582Z,100287.64
2022-10-05T20:06:42.310Z,100287.79
2022-10-05T20:09:24.799Z,100291.86
2022-10-05T20:11:57.730Z,100293.38
2022-10-05T20:14:58.550Z,100291.29
2022-10-05T20:17:49.525Z,100291.02
2022-10-05T20:20:32.137Z,100291.56
2022-10-05T20:23:21.926Z,100293.60
2022-10-05T20:26:17.500Z,100297.00
2022-10-05T20:28:48.307Z,100301.44
2022-10-05T20:31:21.474Z,100304.85
2022-10-05T20:33:53.760Z,100308.98
2022-10-05T20:36:26.096Z,100309.13
2022-10-05T20:39:00.830Z,100310.79
2022-10-05T20:41:35.935Z,100315.44
2022-10-05T20:44:08.458Z,100318.06
2022-10-05T20:46:41.784Z,100316.02
2022-10-05T20:49:14.497Z,100315.33
2022-10-05T20:51:46.764Z,100313.86
2022-10-05T20:54:19.137Z,100316.48
2022-10-05T20:56:51.777Z,100314.86
2022-10-05T20:59:24.970Z,100311.96
2022-10-05T21:01:59.109Z,100308.55
2022-10-05T21:04:40.049Z,100312.79
2022-10-05T21:07:13.111Z,100311.16
2022-10-05T21:09:46.709Z,100310.86
2022-10-05T21:12:19.248Z,100307.36
2022-10-05T21:14:52.828Z,100309.02
2022-10-05T21:17:25.084Z,100309.36
2022-10-05T21:19:57.652Z,100311.81
2022-10-05T21:22:30.264Z,100310.02
2022-10-05T21:25:02.582Z,100311.81
2022-10-05T21:27:34.951Z,100311.58
2022-10-05T21:30:08.666Z,100306.27
2022-10-05T21:32:44.464Z,100309.05
2022-10-05T21:35:17.313Z,100307.02
2022-10-05T21:37:49.616Z,100307.68
2022-10-05T21:40:21.900Z,100306.31
2022-10-05T21:42:54.241Z,100308.02
2022-10-05T21:45:26.726Z,100308.56
2022-10-05T21:48:00.095Z,100311.17
2022-10-05T21:50:33.615Z,100313.08
2022-10-05T21:53:12.275Z,100316.02
2022-10-05T21:55:48.508Z,100317.92
2022-10-05T21:58:28.048Z,100313.25
2022-10-05T22:01:00.648Z,100311.13
2022-10-05T22:03:57.049Z,100311.95
2022-10-05T22:06:29.401Z,100308.64
2022-10-05T22:09:02.034Z,100310.30
2022-10-05T22:11:34.785Z,100312.52
2022-10-05T22:14:07.105Z,100312.92
2022-10-05T22:16:40.639Z,100315.63
2022-10-05T22:19:20.073Z,100311.09
2022-10-05T22:21:52.583Z,100314.52
2022-10-05T22:24:24.982Z,100308.32
2022-10-05T22:26:57.331Z,100308.88
2022-10-05T22:29:29.708Z,100310.06
2022-10-05T22:32:02.110Z,100307.50
2022-10-05T22:34:34.537Z,100307.48
2022-10-05T22:37:07.634Z,100305.60
2022-10-05T22:39:40.006Z,100307.29
2022-10-05T22:42:12.403Z,100308.05
2022-10-05T22:44:44.673Z,100305.36
2022-10-05T22:47:17.248Z,100305.16
2022-10-05T22:49:49.539Z,100302.00
2022-10-05T22:52:21.839Z,100299.84
2022-10-05T22:54:54.260Z,100303.66
2022-10-05T22:57:26.624Z,100306.34
2022-10-05T22:59:58.923Z,100305.85
2022-10-05T23:02:31.301Z,100306.81
2022-10-05T23:05:03.603Z,100308.71
2022-10-05T23:07:40.004Z,100308.48
2022-10-05T23:10:15.103Z,100311.55
2022-10-05T23:12:59.694Z,100312.66
2022-10-05T23:15:33.989Z,100309.27
2022-10-05T23:18:06.344Z,100309.46
2022-10-05T23:20:38.608Z,100309.70
2022-10-05T23:23:10.860Z,100316.83
2022-10-05T23:25:43.212Z,100318.06
2022-10-05T23:28:15.527Z,100317.38
2022-10-05T23:30:48.210Z,100315.98
2022-10-05T23:33:20.562Z,100317.80
2022-10-05T23:36:00.310Z,100320.13
2022-10-05T23:38:32.792Z,100321.10
2022-10-05T23:41:06.265Z,100322.48
2022-10-05T23:43:39.334Z,100321.16
2022-10-05T23:46:12.693Z,100316.67
2022-10-05T23:48:44.954Z,100317.91
2022-10-05T23:51:17.293Z,100314.31
2022-10-05T23:53:49.652Z,100316.88
2022-10-05T23:56:22.181Z,100314.30
2022-10-05T23:58:54.504Z,100313.95
